createdAt,value
2018-05-13T00:01:26.676Z,100241
2018-05-13T00:03:56.591Z,100239
2018-05-13T00:06:25.469Z,100239
2018-05-13T00:08:57.506Z,100242
2018-05-13T00:11:26.336Z,100247
2018-05-13T00:13:54.871Z,100249
2018-05-13T00:16:23.141Z,100254
2018-05-13T00:18:52.045Z,100246
2018-05-13T00:21:20.325Z,100253
2018-05-13T00:23:49.260Z,100250
2018-05-13T00:26:18.428Z,100262
2018-05-13T00:28:48.336Z,100253
2018-05-13T00:31:20.624Z,100266
2018-05-13T00:33:48.912Z,100263
2018-05-13T00:36:17.187Z,100266
2018-05-13T00:38:45.956Z,100265
2018-05-13T00:41:14.040Z,100262
2018-05-13T00:43:42.829Z,100263
2018-05-13T00:46:11.008Z,100268
2018-05-13T00:48:39.771Z,100264
2018-05-13T00:51:08.544Z,100259
2018-05-13T00:53:37.365Z,100248
2018-05-13T00:56:06.622Z,100256
2018-05-13T00:58:34.906Z,100252
2018-05-13T01:01:03.178Z,100258
2018-05-13T01:03:32.099Z,100253
2018-05-13T01:06:01.008Z,100248
2018-05-13T01:08:30.388Z,100248
2018-05-13T01:10:58.604Z,100249
2018-05-13T01:13:29.284Z,100245
2018-05-13T01:15:57.585Z,100245
2018-05-13T01:18:26.811Z,100250
2018-05-13T01:20:55.768Z,100256
2018-05-13T01:23:24.208Z,100255
2018-05-13T01:25:52.315Z,100245
2018-05-13T01:28:20.644Z,100243
2018-05-13T01:30:49.418Z,100244
2018-05-13T01:33:18.271Z,100251
2018-05-13T01:35:46.624Z,100252
2018-05-13T01:38:14.758Z,100245
2018-05-13T01:40:42.840Z,100246
2018-05-13T01:43:11.674Z,100264
2018-05-13T01:45:39.853Z,100248
2018-05-13T01:48:08.131Z,100258
2018-05-13T01:50:37.102Z,100265
2018-05-13T01:53:05.435Z,100274
2018-05-13T01:55:34.542Z,100270
2018-05-13T01:58:03.127Z,100283
2018-05-13T02:00:31.993Z,100277
2018-05-13T02:03:00.325Z,100273
2018-05-13T02:05:29.500Z,100267
2018-05-13T02:07:58.324Z,100273
2018-05-13T02:10:27.170Z,100268
2018-05-13T02:12:56.844Z,100270
2018-05-13T02:15:25.714Z,100262
2018-05-13T02:17:54.195Z,100261
2018-05-13T02:20:22.432Z,100257
2018-05-13T02:22:51.268Z,100259
2018-05-13T02:25:20.173Z,100249
2018-05-13T02:27:48.492Z,100251
2018-05-13T02:30:17.632Z,100261
2018-05-13T02:32:45.816Z,100269
2018-05-13T02:35:13.951Z,100268
2018-05-13T02:37:42.250Z,100263
2018-05-13T02:40:11.063Z,100263
2018-05-13T02:42:39.555Z,100262
2018-05-13T02:45:07.630Z,100262
2018-05-13T02:47:36.389Z,100262
2018-05-13T02:50:04.812Z,100256
2018-05-13T02:52:33.684Z,100254
2018-05-13T02:55:02.863Z,100256
2018-05-13T02:57:31.081Z,100249
2018-05-13T02:59:59.916Z,100254
2018-05-13T03:02:28.715Z,100262
2018-05-13T03:04:57.492Z,100266
2018-05-13T03:07:28.325Z,100269
2018-05-13T03:09:56.619Z,100264
2018-05-13T03:12:24.789Z,100269
2018-05-13T03:14:53.060Z,100281
2018-05-13T03:17:21.361Z,100278
2018-05-13T03:19:49.716Z,100285
2018-05-13T03:22:17.993Z,100290
2018-05-13T03:24:46.788Z,100288
2018-05-13T03:27:15.044Z,100292
2018-05-13T03:29:44.043Z,100289
2018-05-13T03:32:12.343Z,100295
2018-05-13T03:34:42.041Z,100304
2018-05-13T03:37:12.007Z,100302
2018-05-13T03:39:40.101Z,100293
2018-05-13T03:42:08.403Z,100292
2018-05-13T03:44:36.888Z,100288
2018-05-13T03:47:05.832Z,100292
2018-05-13T03:49:34.019Z,100286
2018-05-13T03:52:02.229Z,100298
2018-05-13T03:54:32.144Z,100303
2018-05-13T03:57:00.408Z,100300
2018-05-13T03:59:29.796Z,100304
2018-05-13T04:01:58.663Z,100295
2018-05-13T04:04:26.919Z,100303
2018-05-13T04:06:55.335Z,100305
2018-05-13T04:09:42.487Z,100307
2018-05-13T04:12:29.124Z,100323
2018-05-13T04:18:07.671Z,100318
2018-05-13T04:20:36.520Z,100303
2018-05-13T04:23:06.252Z,100288
2018-05-13T04:25:34.495Z,100293
2018-05-13T04:28:02.795Z,100315
2018-05-13T04:30:32.374Z,100311
2018-05-13T04:33:01.184Z,100311
2018-05-13T04:35:30.397Z,100308
2018-05-13T04:37:59.653Z,100305
2018-05-13T04:40:27.967Z,100303
2018-05-13T04:42:56.847Z,100298
2018-05-13T04:45:25.223Z,100295
2018-05-13T04:47:53.679Z,100294
2018-05-13T04:50:22.530Z,100302
2018-05-13T04:52:50.884Z,100299
2018-05-13T04:55:19.664Z,100306
2018-05-13T04:57:47.951Z,100309
2018-05-13T05:00:16.206Z,100318
2018-05-13T05:02:45.009Z,100319
2018-05-13T05:05:13.257Z,100311
2018-05-13T05:07:42.278Z,100307
2018-05-13T05:10:10.581Z,100309
2018-05-13T05:12:39.333Z,100305
2018-05-13T05:15:07.816Z,100306
2018-05-13T05:17:36.608Z,100315
2018-05-13T05:20:05.403Z,100313
2018-05-13T05:22:33.651Z,100320
2018-05-13T05:25:02.754Z,100312
2018-05-13T05:27:34.087Z,100310
2018-05-13T05:30:03.187Z,100326
2018-05-13T05:32:33.099Z,100321
2018-05-13T05:35:01.390Z,100342
2018-05-13T05:37:29.697Z,100343
2018-05-13T05:39:58.757Z,100346
2018-05-13T05:42:27.996Z,100358
2018-05-13T05:44:56.282Z,100361
2018-05-13T05:47:25.960Z,100360
2018-05-13T05:49:55.096Z,100371
2018-05-13T05:52:23.886Z,100366
2018-05-13T05:54:53.076Z,100366
2018-05-13T05:57:21.400Z,100386
2018-05-13T05:59:49.691Z,100372
2018-05-13T06:02:17.890Z,100373
2018-05-13T06:04:46.099Z,100382
2018-05-13T06:07:14.211Z,100382
2018-05-13T06:09:42.417Z,100390
2018-05-13T06:12:10.616Z,100393
2018-05-13T06:14:38.677Z,100404
2018-05-13T06:17:07.575Z,100411
2018-05-13T06:19:35.757Z,100410
2018-05-13T06:22:04.053Z,100408
2018-05-13T06:24:32.212Z,100406
2018-05-13T06:27:00.980Z,100393
2018-05-13T06:29:29.075Z,100395
2018-05-13T06:31:58.010Z,100401
2018-05-13T06:34:26.817Z,100401
2018-05-13T06:36:55.124Z,100408
2018-05-13T06:39:24.012Z,100404
2018-05-13T06:41:52.569Z,100410
2018-05-13T06:44:20.778Z,100406
2018-05-13T06:46:50.731Z,100409
2018-05-13T06:49:19.088Z,100410
2018-05-13T06:51:47.903Z,100414
2018-05-13T06:54:16.215Z,100403
2018-05-13T06:56:44.435Z,100393
2018-05-13T06:59:12.610Z,100399
2018-05-13T07:01:43.102Z,100396
2018-05-13T07:04:11.872Z,100394
2018-05-13T07:06:40.213Z,100394
2018-05-13T07:09:08.547Z,100396
2018-05-13T07:11:36.840Z,100394
2018-05-13T07:14:04.946Z,100387
2018-05-13T07:16:34.908Z,100390
2018-05-13T07:19:03.187Z,100391
2018-05-13T07:21:31.480Z,100404
2018-05-13T07:23:59.827Z,100407
2018-05-13T07:26:28.947Z,100410
2018-05-13T07:28:57.193Z,100415
2018-05-13T07:31:25.424Z,100415
2018-05-13T07:33:53.491Z,100419
2018-05-13T07:36:23.048Z,100427
2018-05-13T07:38:51.821Z,100426
2018-05-13T07:41:23.619Z,100427
2018-05-13T07:43:53.135Z,100431
2018-05-13T07:46:21.447Z,100424
2018-05-13T07:48:51.428Z,100433
2018-05-13T07:51:20.486Z,100423
2018-05-13T07:53:48.804Z,100427
2018-05-13T07:56:17.628Z,100425
2018-05-13T07:58:47.248Z,100432
2018-05-13T08:01:15.855Z,100437
2018-05-13T08:03:44.118Z,100441
2018-05-13T08:06:12.351Z,100458
2018-05-13T08:08:41.300Z,100459
2018-05-13T08:11:09.665Z,100455
2018-05-13T08:13:39.372Z,100463
2018-05-13T08:16:08.165Z,100453
2018-05-13T08:18:36.637Z,100454
2018-05-13T08:21:05.372Z,100459
2018-05-13T08:23:34.244Z,100482
2018-05-13T08:26:03.916Z,100485
2018-05-13T08:28:35.723Z,100487
2018-05-13T08:31:04.599Z,100486
2018-05-13T08:33:32.905Z,100467
2018-05-13T08:36:01.776Z,100464
2018-05-13T08:38:30.092Z,100469
2018-05-13T08:40:58.279Z,100481
2018-05-13T08:43:26.699Z,100488
2018-05-13T08:45:55.461Z,100500
2018-05-13T08:48:24.287Z,100506
2018-05-13T08:50:53.345Z,100489
2018-05-13T08:53:22.487Z,100471
2018-05-13T08:55:51.332Z,100450
2018-05-13T08:58:20.165Z,100433
2018-05-13T09:00:49.475Z,100418
2018-05-13T09:03:18.099Z,100426
2018-05-13T09:05:47.019Z,100412
2018-05-13T09:08:15.321Z,100421
2018-05-13T09:10:44.160Z,100429
2018-05-13T09:13:13.003Z,100440
2018-05-13T09:15:41.656Z,100449
2018-05-13T09:18:10.422Z,100452
2018-05-13T09:20:38.582Z,100457
2018-05-13T09:23:07.583Z,100465
2018-05-13T09:25:35.700Z,100473
2018-05-13T09:28:03.975Z,100476
2018-05-13T09:30:32.747Z,100473
2018-05-13T09:33:00.891Z,100470
2018-05-13T09:35:29.755Z,100478
2018-05-13T09:37:58.008Z,100481
2018-05-13T09:40:26.256Z,100492
2018-05-13T09:42:54.520Z,100503
2018-05-13T09:45:23.264Z,100504
2018-05-13T09:47:52.672Z,100488
2018-05-13T09:50:21.427Z,100493
2018-05-13T09:52:49.671Z,100505
2018-05-13T09:55:18.400Z,100499
2018-05-13T09:57:47.972Z,100506
2018-05-13T10:00:16.770Z,100515
2018-05-13T10:02:45.323Z,100522
2018-05-13T10:05:14.558Z,100520
2018-05-13T10:07:42.863Z,100502
2018-05-13T10:10:10.941Z,100511
2018-05-13T10:12:40.611Z,100500
2018-05-13T10:15:09.395Z,100488
2018-05-13T10:17:38.064Z,100491
2018-05-13T10:20:06.237Z,100503
2018-05-13T10:22:36.007Z,100504
2018-05-13T10:25:04.870Z,100510
2018-05-13T10:27:33.692Z,100518
2018-05-13T10:30:02.068Z,100508
2018-05-13T10:32:30.268Z,100508
2018-05-13T10:34:59.916Z,100512
2018-05-13T10:37:28.746Z,100499
2018-05-13T10:39:59.792Z,100495
2018-05-13T10:42:28.686Z,100495
2018-05-13T10:44:56.959Z,100514
2018-05-13T10:47:25.032Z,100519
2018-05-13T10:49:54.804Z,100516
2018-05-13T10:52:23.697Z,100518
2018-05-13T10:54:52.545Z,100524
2018-05-13T10:57:21.269Z,100528
2018-05-13T10:59:49.392Z,100527
2018-05-13T11:02:18.296Z,100513
2018-05-13T11:04:47.882Z,100490
2018-05-13T11:07:16.136Z,100493
2018-05-13T11:09:44.392Z,100501
2018-05-13T11:12:12.640Z,100506
2018-05-13T11:14:41.215Z,100501
2018-05-13T11:17:10.056Z,100501
2018-05-13T11:19:40.327Z,100492
2018-05-13T11:22:09.300Z,100494
2018-05-13T11:24:37.464Z,100494
2018-05-13T11:27:07.433Z,100495
2018-05-13T11:29:36.244Z,100494
2018-05-13T11:32:05.169Z,100489
2018-05-13T11:34:34.938Z,100500
2018-05-13T11:37:04.153Z,100497
2018-05-13T11:39:32.256Z,100514
2018-05-13T11:42:00.427Z,100527
2018-05-13T11:44:28.960Z,100532
2018-05-13T11:46:57.156Z,100545
2018-05-13T11:49:26.121Z,100530
2018-05-13T11:51:54.535Z,100524
2018-05-13T11:54:22.764Z,100537
2018-05-13T11:56:51.880Z,100527
2018-05-13T11:59:20.642Z,100515
2018-05-13T12:01:48.793Z,100516
2018-05-13T12:04:17.641Z,100498
2018-05-13T12:06:46.748Z,100509
2018-05-13T12:09:15.638Z,100502
2018-05-13T12:11:43.999Z,100496
2018-05-13T12:14:12.239Z,100482
2018-05-13T12:16:41.247Z,100482
2018-05-13T12:19:09.383Z,100485
2018-05-13T12:21:38.272Z,100507
2018-05-13T12:24:06.509Z,100528
2018-05-13T12:26:34.596Z,100524
2018-05-13T12:29:02.986Z,100525
2018-05-13T12:31:34.663Z,100518
2018-05-13T12:34:02.746Z,100539
2018-05-13T12:36:31.815Z,100537
2018-05-13T12:38:59.936Z,100512
2018-05-13T12:41:28.241Z,100501
2018-05-13T12:43:56.633Z,100506
2018-05-13T12:46:25.385Z,100516
2018-05-13T12:48:53.492Z,100518
2018-05-13T12:51:22.151Z,100518
2018-05-13T12:53:54.281Z,100517
2018-05-13T12:56:24.052Z,100501
2018-05-13T12:58:52.756Z,100496
2018-05-13T13:01:21.102Z,100496
2018-05-13T13:03:49.251Z,100507
2018-05-13T13:06:17.439Z,100498
2018-05-13T13:08:46.228Z,100500
2018-05-13T13:11:14.420Z,100499
2018-05-13T13:13:43.204Z,100483
2018-05-13T13:16:11.543Z,100478
2018-05-13T13:18:41.228Z,100474
2018-05-13T13:21:10.254Z,100475
2018-05-13T13:23:39.102Z,100475
2018-05-13T13:26:07.989Z,100476
2018-05-13T13:28:36.765Z,100462
2018-05-13T13:31:05.559Z,100459
2018-05-13T13:33:33.907Z,100450
2018-05-13T13:36:04.485Z,100459
2018-05-13T13:38:32.565Z,100459
2018-05-13T13:41:00.908Z,100459
2018-05-13T13:43:29.268Z,100464
2018-05-13T13:45:57.575Z,100457
2018-05-13T13:48:25.772Z,100445
2018-05-13T13:50:54.160Z,100440
2018-05-13T13:53:22.964Z,100457
2018-05-13T13:55:51.165Z,100459
2018-05-13T13:58:19.958Z,100466
2018-05-13T14:00:48.343Z,100445
2018-05-13T14:03:16.634Z,100439
2018-05-13T14:05:44.836Z,100444
2018-05-13T14:08:13.995Z,100438
2018-05-13T14:10:42.296Z,100446
2018-05-13T14:13:10.626Z,100443
2018-05-13T14:15:39.489Z,100437
2018-05-13T14:18:08.562Z,100430
2018-05-13T14:20:37.055Z,100430
2018-05-13T14:23:05.344Z,100432
2018-05-13T14:25:36.502Z,100423
2018-05-13T14:28:04.811Z,100422
2018-05-13T14:30:34.309Z,100406
2018-05-13T14:33:02.643Z,100416
2018-05-13T14:35:31.676Z,100410
2018-05-13T14:38:00.606Z,100410
2018-05-13T14:40:30.775Z,100393
2018-05-13T14:42:59.103Z,100395
2018-05-13T14:45:27.937Z,100388
2018-05-13T14:47:56.689Z,100389
2018-05-13T14:50:27.323Z,100395
2018-05-13T14:52:55.972Z,100389
2018-05-13T14:55:24.852Z,100392
2018-05-13T14:57:53.676Z,100404
2018-05-13T15:00:22.998Z,100404
2018-05-13T15:02:51.139Z,100417
2018-05-13T15:05:19.876Z,100409
2018-05-13T15:07:48.632Z,100413
2018-05-13T15:10:16.992Z,100422
2018-05-13T15:12:45.321Z,100429
2018-05-13T15:15:13.531Z,100434
2018-05-13T15:17:41.618Z,100431
2018-05-13T15:20:10.040Z,100429
2018-05-13T15:22:39.995Z,100453
2018-05-13T15:25:08.105Z,100442
2018-05-13T15:27:37.246Z,100439
2018-05-13T15:30:06.189Z,100440
2018-05-13T15:32:35.045Z,100437
2018-05-13T15:35:04.344Z,100449
2018-05-13T15:37:32.471Z,100443
2018-05-13T15:40:01.408Z,100456
2018-05-13T15:42:29.722Z,100450
2018-05-13T15:44:57.856Z,100455
2018-05-13T15:47:26.249Z,100440
2018-05-13T15:49:55.884Z,100436
2018-05-13T15:52:24.150Z,100451
2018-05-13T15:54:52.310Z,100449
2018-05-13T15:57:20.366Z,100439
2018-05-13T15:59:48.717Z,100444
2018-05-13T16:02:17.756Z,100438
2018-05-13T16:04:46.237Z,100442
2018-05-13T16:07:20.346Z,100442
2018-05-13T16:09:48.612Z,100443
2018-05-13T16:12:16.858Z,100441
2018-05-13T16:14:46.800Z,100436
2018-05-13T16:17:15.111Z,100435
2018-05-13T16:19:43.377Z,100442
2018-05-13T16:22:12.168Z,100436
2018-05-13T16:24:40.263Z,100446
2018-05-13T16:27:08.568Z,100445
2018-05-13T16:29:37.661Z,100447
2018-05-13T16:32:05.857Z,100443
2018-05-13T16:34:34.186Z,100442
2018-05-13T16:37:02.345Z,100432
2018-05-13T16:39:31.254Z,100427
2018-05-13T16:41:59.825Z,100424
2018-05-13T16:44:28.180Z,100421
2018-05-13T16:46:56.379Z,100416
2018-05-13T16:49:24.956Z,100420
2018-05-13T16:51:55.659Z,100421
2018-05-13T16:54:23.972Z,100424
2018-05-13T16:56:52.835Z,100417
2018-05-13T16:59:21.936Z,100421
2018-05-13T17:01:50.365Z,100419
2018-05-13T17:04:19.178Z,100405
2018-05-13T17:06:47.285Z,100401
2018-05-13T17:09:16.555Z,100406
2018-05-13T17:11:44.736Z,100407
2018-05-13T17:14:12.958Z,100420
2018-05-13T17:16:41.821Z,100418
2018-05-13T17:19:09.938Z,100427
2018-05-13T17:21:38.205Z,100417
2018-05-13T17:24:07.284Z,100420
2018-05-13T17:26:35.628Z,100439
2018-05-13T17:29:04.117Z,100437
2018-05-13T17:31:32.668Z,100438
2018-05-13T17:34:03.034Z,100385
2018-05-13T17:36:31.395Z,100463
2018-05-13T17:38:59.509Z,100457
2018-05-13T17:41:27.860Z,100469
2018-05-13T17:43:58.494Z,100463
2018-05-13T17:46:26.899Z,100463
2018-05-13T17:48:59.137Z,100469
2018-05-13T17:51:30.729Z,100474
2018-05-13T17:54:01.741Z,100459
2018-05-13T17:56:33.553Z,100464
2018-05-13T17:59:03.326Z,100461
2018-05-13T18:01:31.643Z,100472
2018-05-13T18:04:02.216Z,100469
2018-05-13T18:06:31.158Z,100473
2018-05-13T18:09:04.648Z,100469
2018-05-13T18:11:37.414Z,100471
2018-05-13T18:14:05.652Z,100471
2018-05-13T18:16:33.764Z,100471
2018-05-13T18:19:03.233Z,100472
2018-05-13T18:21:32.569Z,100462
2018-05-13T18:24:06.693Z,100471
2018-05-13T18:26:36.957Z,100470
2018-05-13T18:29:06.688Z,100475
2018-05-13T18:31:35.266Z,100478
2018-05-13T18:34:04.197Z,100472
2018-05-13T18:36:33.418Z,100476
2018-05-13T18:39:04.702Z,100483
2018-05-13T18:41:36.212Z,100484
2018-05-13T18:44:07.113Z,100477
2018-05-13T18:46:35.801Z,100482
2018-05-13T18:49:04.133Z,100476
2018-05-13T18:51:33.505Z,100476
2018-05-13T18:54:01.969Z,100492
2018-05-13T18:56:34.016Z,100473
2018-05-13T18:59:02.189Z,100479
2018-05-13T19:01:32.029Z,100482
2018-05-13T19:04:00.990Z,100477
2018-05-13T19:06:35.411Z,100476
2018-05-13T19:09:03.541Z,100465
2018-05-13T19:11:35.211Z,100463
2018-05-13T19:14:04.554Z,100451
2018-05-13T19:16:35.832Z,100448
2018-05-13T19:19:08.544Z,100450
2018-05-13T19:21:36.968Z,100464
2018-05-13T19:24:09.263Z,100463
2018-05-13T19:26:39.256Z,100473
2018-05-13T19:29:08.986Z,100465
2018-05-13T19:31:38.208Z,100456
2018-05-13T19:34:08.468Z,100452
2018-05-13T19:36:37.297Z,100455
2018-05-13T19:39:05.803Z,100452
2018-05-13T19:41:34.944Z,100457
2018-05-13T19:44:05.868Z,100461
2018-05-13T19:46:39.144Z,100463
2018-05-13T19:49:11.288Z,100467
2018-05-13T19:51:45.880Z,100467
2018-05-13T19:54:14.231Z,100468
2018-05-13T19:56:43.061Z,100459
2018-05-13T19:59:12.043Z,100460
2018-05-13T20:01:40.876Z,100459
2018-05-13T20:04:10.512Z,100460
2018-05-13T20:06:38.996Z,100459
2018-05-13T20:09:07.196Z,100457
2018-05-13T20:11:35.600Z,100462
2018-05-13T20:14:04.717Z,100470
2018-05-13T20:16:34.284Z,100477
2018-05-13T20:19:02.544Z,100478
2018-05-13T20:21:30.707Z,100483
2018-05-13T20:23:58.818Z,100487
2018-05-13T20:26:27.368Z,100492
2018-05-13T20:28:58.754Z,100482
2018-05-13T20:31:27.547Z,100491
2018-05-13T20:33:56.412Z,100489
2018-05-13T20:36:24.660Z,100493
2018-05-13T20:38:53.063Z,100505
2018-05-13T20:41:21.131Z,100516
2018-05-13T20:43:49.452Z,100523
2018-05-13T20:46:18.220Z,100532
2018-05-13T20:48:47.069Z,100541
2018-05-13T20:51:15.443Z,100548
2018-05-13T20:53:43.876Z,100559
2018-05-13T20:56:12.213Z,100554
2018-05-13T20:58:41.020Z,100563
2018-05-13T21:01:10.233Z,100562
2018-05-13T21:03:39.091Z,100567
2018-05-13T21:06:07.345Z,100574
2018-05-13T21:08:35.648Z,100577
2018-05-13T21:11:04.780Z,100569
2018-05-13T21:13:33.648Z,100566
2018-05-13T21:16:01.856Z,100560
2018-05-13T21:18:30.032Z,100556
2018-05-13T21:20:59.081Z,100547
2018-05-13T21:23:27.955Z,100537
2018-05-13T21:25:56.753Z,100535
2018-05-13T21:28:25.540Z,100537
2018-05-13T21:30:54.045Z,100523
2018-05-13T21:33:22.365Z,100513
2018-05-13T21:35:50.671Z,100516
2018-05-13T21:38:19.683Z,100517
2018-05-13T21:40:47.845Z,100508
2018-05-13T21:43:16.179Z,100510
2018-05-13T21:45:45.053Z,100497
2018-05-13T21:48:14.105Z,100489
2018-05-13T21:50:42.424Z,100491
2018-05-13T21:53:10.533Z,100480
2018-05-13T21:55:40.364Z,100485
2018-05-13T21:58:08.796Z,100482
2018-05-13T22:00:37.668Z,100495
2018-05-13T22:03:06.536Z,100497
2018-05-13T22:05:35.338Z,100500
2018-05-13T22:08:03.648Z,100494
2018-05-13T22:10:31.928Z,100490
2018-05-13T22:13:00.962Z,100497
2018-05-13T22:15:29.970Z,100492
2018-05-13T22:17:59.486Z,100497
2018-05-13T22:20:27.681Z,100499
2018-05-13T22:22:56.544Z,100508
2018-05-13T22:25:25.422Z,100494
2018-05-13T22:27:53.835Z,100496
2018-05-13T22:30:22.761Z,100484
2018-05-13T22:32:52.316Z,100490
2018-05-13T22:35:21.340Z,100487
2018-05-13T22:37:50.225Z,100488
2018-05-13T22:40:19.096Z,100476
2018-05-13T22:42:47.444Z,100460
2018-05-13T22:45:15.728Z,100456
2018-05-13T22:47:44.729Z,100459
2018-05-13T22:50:12.978Z,100454
2018-05-13T22:52:41.919Z,100458
2018-05-13T22:55:11.109Z,100459
2018-05-13T22:57:39.401Z,100459
2018-05-13T23:00:08.616Z,100457
2018-05-13T23:02:36.873Z,100457
2018-05-13T23:05:05.953Z,100446
2018-05-13T23:07:34.727Z,100440
2018-05-13T23:10:03.155Z,100443
2018-05-13T23:12:31.752Z,100429
2018-05-13T23:15:01.015Z,100423
2018-05-13T23:17:29.212Z,100430
2018-05-13T23:19:59.316Z,100419
2018-05-13T23:22:35.093Z,100411
2018-05-13T23:25:03.518Z,100407
2018-05-13T23:27:33.211Z,100408
2018-05-13T23:30:01.517Z,100403
2018-05-13T23:32:29.773Z,100399
2018-05-13T23:34:58.353Z,100405
2018-05-13T23:37:26.648Z,100410
2018-05-13T23:39:54.801Z,100407
2018-05-13T23:42:24.026Z,100419
2018-05-13T23:44:54.237Z,100413
2018-05-13T23:47:25.177Z,100416
2018-05-13T23:49:53.536Z,100410
2018-05-13T23:52:21.931Z,100410
2018-05-13T23:54:51.965Z,100400
2018-05-13T23:57:20.593Z,100407
2018-05-13T23:59:55.073Z,100408
